createdAt,value
2018-08-29T00:01:14.816Z,18.35
2018-08-29T00:03:43.862Z,18.18
2018-08-29T00:06:12.857Z,17.99
2018-08-29T00:08:46.993Z,17.99
2018-08-29T00:11:15.974Z,18.03
2018-08-29T00:13:44.980Z,17.94
2018-08-29T00:16:14.021Z,18.06
2018-08-29T00:18:42.975Z,17.44
2018-08-29T00:21:11.930Z,17.66
2018-08-29T00:23:40.874Z,17.25
2018-08-29T00:26:10.175Z,17.19
2018-08-29T00:28:39.090Z,17.32
2018-08-29T00:31:08.256Z,17.73
2018-08-29T00:33:37.674Z,17.94
2018-08-29T00:36:06.764Z,17.43
2018-08-29T00:38:35.704Z,17.05
2018-08-29T00:41:04.640Z,17.69
2018-08-29T00:43:33.549Z,17.93
2018-08-29T00:46:02.663Z,17.95
2018-08-29T00:48:31.621Z,17.21
2018-08-29T00:51:00.565Z,17.30
2018-08-29T00:53:29.513Z,17.31
2018-08-29T00:55:58.527Z,17.48
2018-08-29T00:58:27.705Z,17.34
2018-08-29T01:00:56.750Z,17.22
2018-08-29T01:03:26.066Z,17.20
2018-08-29T01:05:55.096Z,17.42
2018-08-29T01:08:24.006Z,17.47
2018-08-29T01:10:52.945Z,17.53
2018-08-29T01:13:21.857Z,17.64
2018-08-29T01:15:50.826Z,17.62
2018-08-29T01:18:19.912Z,17.64
2018-08-29T01:20:49.052Z,17.54
2018-08-29T01:23:17.986Z,17.37
2018-08-29T01:25:47.021Z,17.45
2018-08-29T01:28:15.978Z,17.12
2018-08-29T01:30:45.030Z,17.00
2018-08-29T01:33:13.945Z,17.38
2018-08-29T01:35:42.897Z,17.38
2018-08-29T01:38:12.078Z,17.62
2018-08-29T01:40:41.155Z,17.54
2018-08-29T01:43:10.407Z,17.37
2018-08-29T01:45:39.637Z,17.30
2018-08-29T01:48:09.077Z,17.45
2018-08-29T01:50:38.096Z,17.32
2018-08-29T01:53:06.986Z,17.00
2018-08-29T01:55:35.974Z,17.19
2018-08-29T01:58:05.006Z,16.14
2018-08-29T02:00:33.978Z,16.60
2018-08-29T02:03:03.008Z,16.54
2018-08-29T02:05:31.997Z,16.41
2018-08-29T02:08:00.945Z,16.84
2018-08-29T02:10:29.908Z,16.93
2018-08-29T02:12:59.046Z,16.95
2018-08-29T02:15:28.011Z,17.00
2018-08-29T02:17:57.019Z,16.34
2018-08-29T02:20:26.023Z,16.32
2018-08-29T02:22:55.113Z,15.85
2018-08-29T02:25:24.046Z,15.54
2018-08-29T02:27:53.410Z,15.38
2018-08-29T02:30:22.378Z,15.49
2018-08-29T02:32:51.350Z,15.86
2018-08-29T02:35:20.306Z,15.99
2018-08-29T02:37:49.677Z,15.93
2018-08-29T02:40:18.757Z,15.99
2018-08-29T02:42:52.897Z,16.39
2018-08-29T02:45:21.814Z,16.36
2018-08-29T02:47:50.786Z,15.73
2018-08-29T02:50:19.682Z,16.10
2018-08-29T02:52:49.105Z,16.10
2018-08-29T02:55:23.195Z,16.26
2018-08-29T02:57:52.226Z,16.08
2018-08-29T03:00:21.577Z,16.29
2018-08-29T03:02:50.574Z,16.24
2018-08-29T03:05:19.537Z,16.30
2018-08-29T03:07:48.565Z,15.73
2018-08-29T03:10:17.602Z,15.95
2018-08-29T03:12:46.612Z,15.85
2018-08-29T03:15:15.565Z,15.89
2018-08-29T03:17:44.596Z,15.75
2018-08-29T03:20:13.562Z,15.64
2018-08-29T03:22:42.594Z,15.76
2018-08-29T03:25:11.937Z,15.90
2018-08-29T03:27:41.443Z,15.97
2018-08-29T03:30:10.805Z,15.61
2018-08-29T03:32:40.162Z,15.95
2018-08-29T03:35:09.725Z,16.11
2018-08-29T03:37:38.868Z,15.79
2018-08-29T03:40:08.692Z,15.66
2018-08-29T03:42:37.674Z,15.88
2018-08-29T03:45:06.710Z,15.77
2018-08-29T03:47:35.766Z,16.10
2018-08-29T03:50:04.755Z,15.85
2018-08-29T03:52:33.797Z,16.04
2018-08-29T03:55:02.776Z,15.93
2018-08-29T03:57:31.820Z,15.63
2018-08-29T04:00:00.807Z,15.41
2018-08-29T04:02:29.931Z,15.63
2018-08-29T04:04:59.230Z,15.70
2018-08-29T04:07:28.285Z,15.78
2018-08-29T04:09:57.506Z,15.87
2018-08-29T04:12:26.592Z,15.71
2018-08-29T04:14:55.613Z,15.47
2018-08-29T04:17:24.600Z,15.83
2018-08-29T04:19:53.586Z,15.89
2018-08-29T04:22:22.578Z,15.85
2018-08-29T04:24:51.786Z,15.74
2018-08-29T04:27:21.169Z,15.89
2018-08-29T04:29:50.293Z,15.75
2018-08-29T04:32:19.530Z,15.56
2018-08-29T04:34:48.538Z,15.64
2018-08-29T04:37:17.538Z,15.80
2018-08-29T04:39:46.535Z,15.58
2018-08-29T04:42:15.542Z,15.60
2018-08-29T04:44:44.629Z,15.45
2018-08-29T04:47:13.650Z,15.23
2018-08-29T04:49:42.621Z,15.62
2018-08-29T04:52:11.629Z,15.66
2018-08-29T04:54:40.750Z,15.76
2018-08-29T04:57:09.690Z,15.37
2018-08-29T04:59:38.786Z,15.79
2018-08-29T05:02:07.965Z,15.56
2018-08-29T05:04:37.102Z,15.24
2018-08-29T05:07:06.381Z,15.51
2018-08-29T05:09:35.356Z,15.76
2018-08-29T05:12:04.315Z,15.71
2018-08-29T05:14:33.301Z,15.66
2018-08-29T05:17:02.318Z,15.79
2018-08-29T05:19:31.359Z,15.55
2018-08-29T05:22:00.259Z,15.56
2018-08-29T05:24:29.511Z,15.53
2018-08-29T05:26:58.741Z,15.76
2018-08-29T05:29:28.171Z,15.67
2018-08-29T05:31:57.155Z,16.00
2018-08-29T05:34:26.173Z,15.82
2018-08-29T05:36:55.274Z,16.10
2018-08-29T05:39:24.649Z,16.27
2018-08-29T05:41:53.773Z,16.12
2018-08-29T05:44:22.785Z,16.20
2018-08-29T05:46:51.826Z,15.87
2018-08-29T05:49:20.870Z,16.42
2018-08-29T05:51:49.894Z,15.70
2018-08-29T05:54:30.567Z,16.39
2018-08-29T05:56:59.838Z,16.34
2018-08-29T05:59:30.170Z,16.10
2018-08-29T06:01:59.766Z,16.39
2018-08-29T06:04:29.052Z,16.85
2018-08-29T06:06:58.427Z,17.00
2018-08-29T06:09:27.518Z,17.28
2018-08-29T06:11:56.519Z,17.44
2018-08-29T06:14:25.505Z,17.30
2018-08-29T06:16:54.465Z,17.37
2018-08-29T06:19:23.874Z,17.77
2018-08-29T06:21:52.907Z,17.70
2018-08-29T06:24:21.956Z,17.86
2018-08-29T06:26:50.900Z,17.84
2018-08-29T06:29:19.985Z,18.26
2018-08-29T06:31:49.818Z,17.62
2018-08-29T06:34:18.949Z,17.72
2018-08-29T06:36:48.235Z,18.19
2018-08-29T06:39:17.269Z,17.83
2018-08-29T06:41:46.229Z,18.00
2018-08-29T06:44:15.367Z,18.03
2018-08-29T06:46:45.023Z,18.29
2018-08-29T06:49:14.069Z,18.85
2018-08-29T06:51:43.178Z,18.71
2018-08-29T06:54:12.321Z,19.13
2018-08-29T06:56:41.519Z,19.30
2018-08-29T06:59:14.455Z,19.40
2018-08-29T07:01:43.617Z,19.42
2018-08-29T07:04:12.609Z,19.78
2018-08-29T07:06:41.746Z,19.57
2018-08-29T07:09:12.850Z,19.60
2018-08-29T07:11:42.345Z,20.28
2018-08-29T07:14:12.173Z,20.13
2018-08-29T07:16:41.623Z,20.06
2018-08-29T07:19:10.925Z,20.60
2018-08-29T07:21:40.286Z,20.77
2018-08-29T07:24:09.513Z,19.83
2018-08-29T07:26:38.682Z,20.84
2018-08-29T07:29:08.242Z,20.58
2018-08-29T07:31:37.514Z,20.35
2018-08-29T07:34:06.839Z,20.77
2018-08-29T07:36:36.214Z,21.10
2018-08-29T07:39:06.714Z,21.22
2018-08-29T07:41:36.326Z,21.29
2018-08-29T07:44:06.167Z,21.10
2018-08-29T07:46:35.462Z,20.60
2018-08-29T07:49:04.883Z,21.22
2018-08-29T07:51:34.378Z,22.26
2018-08-29T07:54:03.484Z,22.07
2018-08-29T07:56:32.388Z,22.78
2018-08-29T07:59:01.461Z,22.38
2018-08-29T08:01:30.617Z,23.81
2018-08-29T08:03:59.637Z,22.86
2018-08-29T08:06:28.635Z,22.32
2018-08-29T08:09:03.104Z,23.72
2018-08-29T08:11:32.010Z,22.77
2018-08-29T08:14:01.062Z,23.96
2018-08-29T08:16:30.082Z,24.10
2018-08-29T08:18:59.076Z,24.43
2018-08-29T08:21:28.247Z,24.69
2018-08-29T08:23:57.158Z,24.53
2018-08-29T08:26:26.374Z,25.64
2018-08-29T08:28:55.362Z,24.77
2018-08-29T08:31:24.481Z,25.48
2018-08-29T08:33:53.527Z,24.58
2018-08-29T08:36:22.660Z,24.03
2018-08-29T08:38:51.734Z,24.26
2018-08-29T08:41:20.709Z,25.67
2018-08-29T08:43:49.833Z,25.59
2018-08-29T08:46:18.815Z,25.55
2018-08-29T08:48:48.148Z,23.69
2018-08-29T08:51:16.907Z,24.10
2018-08-29T08:53:45.886Z,25.03
2018-08-29T08:56:14.944Z,24.86
2018-08-29T08:58:44.014Z,24.78
2018-08-29T09:01:13.029Z,24.80
2018-08-29T09:03:42.037Z,24.94
2018-08-29T09:06:11.137Z,25.86
2018-08-29T09:08:40.179Z,25.29
2018-08-29T09:11:09.509Z,24.93
2018-08-29T09:13:38.520Z,25.00
2018-08-29T09:16:07.625Z,25.26
2018-08-29T09:18:36.687Z,24.86
2018-08-29T09:21:05.831Z,24.77
2018-08-29T09:23:34.943Z,25.69
2018-08-29T09:26:04.085Z,25.84
2018-08-29T09:28:33.240Z,25.67
2018-08-29T09:31:02.610Z,26.79
2018-08-29T09:33:31.629Z,26.67
2018-08-29T09:36:00.722Z,26.42
2018-08-29T09:38:29.694Z,27.11
2018-08-29T09:40:58.766Z,26.37
2018-08-29T09:43:27.806Z,26.92
2018-08-29T09:45:56.785Z,26.67
2018-08-29T09:48:26.124Z,26.99
2018-08-29T09:50:56.107Z,27.38
2018-08-29T09:53:25.070Z,27.76
2018-08-29T09:55:54.137Z,26.64
2018-08-29T09:58:23.254Z,27.25
2018-08-29T10:00:57.346Z,28.45
2018-08-29T10:03:26.591Z,27.25
2018-08-29T10:05:55.993Z,27.96
2018-08-29T10:08:25.365Z,28.64
2018-08-29T10:10:54.971Z,28.36
2018-08-29T10:13:24.211Z,29.16
2018-08-29T10:15:53.644Z,28.97
2018-08-29T10:18:23.002Z,28.40
2018-08-29T10:20:52.337Z,27.97
2018-08-29T10:23:21.403Z,28.25
2018-08-29T10:25:50.317Z,28.04
2018-08-29T10:28:19.548Z,27.62
2018-08-29T10:30:48.774Z,28.57
2018-08-29T10:33:17.830Z,28.63
2018-08-29T10:35:47.259Z,28.63
2018-08-29T10:38:16.355Z,28.98
2018-08-29T10:40:45.387Z,29.70
2018-08-29T10:43:14.716Z,29.52
2018-08-29T10:45:43.666Z,28.63
2018-08-29T10:48:12.753Z,28.57
2018-08-29T10:50:41.817Z,28.42
2018-08-29T10:53:10.791Z,29.68
2018-08-29T10:55:39.949Z,29.72
2018-08-29T10:58:09.026Z,30.03
2018-08-29T11:00:38.118Z,29.15
2018-08-29T11:03:07.612Z,29.44
2018-08-29T11:05:36.570Z,29.48
2018-08-29T11:08:05.600Z,28.85
2018-08-29T11:10:34.599Z,28.51
2018-08-29T11:13:03.831Z,28.92
2018-08-29T11:15:32.834Z,28.93
2018-08-29T11:18:01.847Z,28.87
2018-08-29T11:20:30.916Z,29.21
2018-08-29T11:22:59.869Z,29.16
2018-08-29T11:25:28.770Z,30.22
2018-08-29T11:27:57.799Z,30.81
2018-08-29T11:30:26.745Z,31.31
2018-08-29T11:32:55.814Z,31.26
2018-08-29T11:35:24.735Z,30.05
2018-08-29T11:37:53.784Z,31.49
2018-08-29T11:40:22.794Z,29.97
2018-08-29T11:42:51.849Z,30.07
2018-08-29T11:45:20.907Z,30.42
2018-08-29T11:47:49.994Z,31.80
2018-08-29T11:50:18.954Z,30.42
2018-08-29T11:52:47.914Z,29.14
2018-08-29T11:55:17.037Z,30.46
2018-08-29T11:57:46.070Z,29.83
2018-08-29T12:00:15.056Z,29.77
2018-08-29T12:02:44.314Z,30.45
2018-08-29T12:05:13.618Z,30.96
2018-08-29T12:07:42.934Z,29.91
2018-08-29T12:10:11.911Z,30.84
2018-08-29T12:12:41.130Z,30.93
2018-08-29T12:15:10.342Z,31.40
2018-08-29T12:17:39.514Z,30.05
2018-08-29T12:20:08.806Z,31.38
2018-08-29T12:22:37.822Z,30.05
2018-08-29T12:25:06.746Z,29.85
2018-08-29T12:27:36.101Z,30.16
2018-08-29T12:30:05.246Z,30.33
2018-08-29T12:32:34.618Z,30.13
2018-08-29T12:35:03.885Z,32.99
2018-08-29T12:37:33.331Z,33.33
2018-08-29T12:40:02.653Z,31.75
2018-08-29T12:42:31.634Z,32.60
2018-08-29T12:45:00.666Z,32.73
2018-08-29T12:47:29.718Z,32.63
2018-08-29T12:49:58.710Z,31.47
2018-08-29T12:52:27.702Z,30.92
2018-08-29T12:54:57.087Z,32.36
2018-08-29T12:57:26.545Z,31.66
2018-08-29T12:59:55.546Z,31.20
2018-08-29T13:02:24.567Z,30.71
2018-08-29T13:04:53.755Z,30.16
2018-08-29T13:07:22.809Z,30.25
2018-08-29T13:09:51.970Z,30.72
2018-08-29T13:12:21.195Z,30.94
2018-08-29T13:14:50.634Z,31.38
2018-08-29T13:17:19.910Z,30.47
2018-08-29T13:19:48.886Z,30.61
2018-08-29T13:22:17.936Z,30.52
2018-08-29T13:24:46.955Z,30.22
2018-08-29T13:27:16.340Z,30.73
2018-08-29T13:29:45.527Z,30.85
2018-08-29T13:32:14.678Z,30.79
2018-08-29T13:34:44.066Z,30.74
2018-08-29T13:37:13.057Z,31.31
2018-08-29T13:39:42.101Z,31.11
2018-08-29T13:42:11.054Z,30.92
2018-08-29T13:44:40.422Z,31.01
2018-08-29T13:47:09.724Z,30.29
2018-08-29T13:49:38.820Z,30.28
2018-08-29T13:52:08.189Z,30.11
2018-08-29T13:54:37.817Z,29.71
2018-08-29T13:57:07.015Z,29.83
2018-08-29T13:59:36.375Z,30.35
2018-08-29T14:02:05.737Z,29.90
2018-08-29T14:04:34.804Z,28.08
2018-08-29T14:07:03.765Z,27.45
2018-08-29T14:09:32.853Z,27.21
2018-08-29T14:12:01.846Z,27.31
2018-08-29T14:14:31.321Z,26.54
2018-08-29T14:17:00.446Z,25.70
2018-08-29T14:19:29.525Z,23.28
2018-08-29T14:21:58.537Z,23.18
2018-08-29T14:24:27.658Z,22.90
2018-08-29T14:26:56.774Z,23.82
2018-08-29T14:29:26.137Z,24.14
2018-08-29T14:31:55.386Z,24.50
2018-08-29T14:34:25.592Z,24.85
2018-08-29T14:36:54.953Z,24.56
2018-08-29T14:39:24.647Z,24.29
2018-08-29T14:41:53.663Z,23.63
2018-08-29T14:44:22.726Z,23.71
2018-08-29T14:46:51.689Z,23.89
2018-08-29T14:49:20.621Z,23.78
2018-08-29T14:51:49.641Z,24.05
2018-08-29T14:54:18.530Z,24.21
2018-08-29T14:56:47.985Z,24.02
2018-08-29T14:59:19.658Z,24.22
2018-08-29T15:02:10.722Z,24.20
2018-08-29T15:04:41.033Z,24.17
2018-08-29T15:07:10.860Z,24.24
2018-08-29T15:09:40.634Z,24.16
2018-08-29T15:12:10.134Z,23.88
2018-08-29T15:14:39.578Z,24.29
2018-08-29T15:17:08.518Z,24.18
2018-08-29T15:19:37.620Z,24.11
2018-08-29T15:22:07.069Z,24.02
2018-08-29T15:24:37.247Z,23.99
2018-08-29T15:27:06.271Z,23.75
2018-08-29T15:29:35.212Z,24.01
2018-08-29T15:32:04.198Z,23.78
2018-08-29T15:34:33.088Z,23.91
2018-08-29T15:37:02.408Z,23.77
2018-08-29T15:39:32.012Z,24.14
2018-08-29T15:42:01.417Z,24.47
2018-08-29T15:44:30.686Z,24.11
2018-08-29T15:46:59.762Z,24.66
2018-08-29T15:49:28.650Z,24.78
2018-08-29T15:51:57.795Z,25.18
2018-08-29T15:54:27.290Z,25.07
2018-08-29T15:56:57.922Z,25.11
2018-08-29T15:59:27.950Z,25.31
2018-08-29T16:01:57.630Z,25.21
2018-08-29T16:04:27.402Z,24.74
2018-08-29T16:06:56.873Z,25.19
2018-08-29T16:09:26.173Z,25.10
2018-08-29T16:11:55.774Z,24.71
2018-08-29T16:14:25.242Z,25.10
2018-08-29T16:16:54.369Z,25.14
2018-08-29T16:19:23.298Z,25.44
2018-08-29T16:21:52.377Z,25.51
2018-08-29T16:24:21.423Z,25.82
2018-08-29T16:26:50.734Z,25.98
2018-08-29T16:29:20.062Z,26.34
2018-08-29T16:31:49.726Z,26.33
2018-08-29T16:34:19.051Z,26.01
2018-08-29T16:36:48.202Z,25.98
2018-08-29T16:39:17.449Z,26.07
2018-08-29T16:41:46.769Z,25.59
2018-08-29T16:44:15.724Z,25.39
2018-08-29T16:46:44.693Z,25.24
2018-08-29T16:49:14.030Z,25.31
2018-08-29T16:51:43.074Z,25.40
2018-08-29T16:54:12.058Z,24.95
2018-08-29T16:56:41.090Z,25.43
2018-08-29T16:59:10.058Z,25.45
2018-08-29T17:01:39.063Z,25.07
2018-08-29T17:04:08.073Z,24.84
2018-08-29T17:06:37.471Z,24.87
2018-08-29T17:09:06.582Z,24.67
2018-08-29T17:11:35.659Z,25.08
2018-08-29T17:14:04.922Z,25.36
2018-08-29T17:16:34.529Z,25.30
2018-08-29T17:19:03.958Z,25.37
2018-08-29T17:21:33.453Z,25.29
2018-08-29T17:24:02.627Z,24.59
2018-08-29T17:26:33.581Z,24.84
2018-08-29T17:29:02.641Z,24.81
2018-08-29T17:31:32.737Z,24.09
2018-08-29T17:34:02.105Z,24.28
2018-08-29T17:36:31.507Z,24.35
2018-08-29T17:39:00.927Z,24.93
2018-08-29T17:41:29.996Z,24.91
2018-08-29T17:43:58.962Z,25.13
2018-08-29T17:46:27.969Z,25.26
2018-08-29T17:48:56.973Z,25.34
2018-08-29T17:51:26.010Z,25.29
2018-08-29T17:53:54.989Z,25.12
2018-08-29T17:56:24.057Z,24.58
2018-08-29T17:58:53.062Z,24.89
2018-08-29T18:01:22.065Z,24.86
2018-08-29T18:03:51.062Z,24.86
2018-08-29T18:06:20.090Z,24.78
2018-08-29T18:08:49.002Z,24.80
2018-08-29T18:11:18.320Z,25.05
2018-08-29T18:13:47.706Z,24.91
2018-08-29T18:16:17.146Z,24.85
2018-08-29T18:18:47.351Z,24.71
2018-08-29T18:21:16.791Z,25.00
2018-08-29T18:23:45.926Z,24.73
2018-08-29T18:26:15.176Z,24.86
2018-08-29T18:28:44.518Z,24.96
2018-08-29T18:31:13.577Z,24.93
2018-08-29T18:33:42.502Z,25.01
2018-08-29T18:36:11.421Z,24.98
2018-08-29T18:38:40.386Z,24.19
2018-08-29T18:41:09.348Z,23.38
2018-08-29T18:43:38.442Z,22.88
2018-08-29T18:46:07.403Z,23.28
2018-08-29T18:48:36.414Z,23.54
2018-08-29T18:51:05.666Z,23.13
2018-08-29T18:53:34.678Z,22.81
2018-08-29T18:56:03.965Z,22.49
2018-08-29T18:58:33.110Z,22.58
2018-08-29T19:01:02.458Z,22.59
2018-08-29T19:03:31.700Z,22.25
2018-08-29T19:06:00.939Z,22.17
2018-08-29T19:08:30.295Z,22.52
2018-08-29T19:10:59.370Z,22.50
2018-08-29T19:13:28.688Z,22.50
2018-08-29T19:15:57.697Z,21.75
2018-08-29T19:18:26.696Z,21.68
2018-08-29T19:20:55.666Z,21.22
2018-08-29T19:23:24.651Z,21.26
2018-08-29T19:25:53.674Z,21.48
2018-08-29T19:28:22.784Z,21.63
2018-08-29T19:30:51.809Z,21.73
2018-08-29T19:33:20.762Z,21.67
2018-08-29T19:35:49.758Z,21.71
2018-08-29T19:38:18.886Z,21.68
2018-08-29T19:40:47.813Z,22.18
2018-08-29T19:43:16.814Z,22.49
2018-08-29T19:45:45.894Z,22.61
2018-08-29T19:48:14.893Z,22.40
2018-08-29T19:50:43.925Z,21.77
2018-08-29T19:53:12.884Z,21.49
2018-08-29T19:55:41.811Z,21.72
2018-08-29T19:58:10.857Z,22.20
2018-08-29T20:00:39.715Z,22.27
2018-08-29T20:03:08.685Z,22.20
2018-08-29T20:05:37.784Z,22.43
2018-08-29T20:08:06.827Z,22.15
2018-08-29T20:10:35.753Z,21.86
2018-08-29T20:13:04.774Z,22.12
2018-08-29T20:15:33.898Z,21.68
2018-08-29T20:18:02.837Z,21.92
2018-08-29T20:20:31.837Z,22.22
2018-08-29T20:23:00.866Z,21.79
2018-08-29T20:25:29.777Z,21.46
2018-08-29T20:27:58.885Z,21.48
2018-08-29T20:30:27.817Z,21.42
2018-08-29T20:32:57.010Z,20.99
2018-08-29T20:35:25.904Z,21.01
2018-08-29T20:37:54.857Z,20.98
2018-08-29T20:40:23.942Z,21.31
2018-08-29T20:42:52.913Z,21.33
2018-08-29T20:45:21.789Z,21.57
2018-08-29T20:47:50.753Z,21.26
2018-08-29T20:50:19.728Z,21.94
2018-08-29T20:52:48.675Z,22.05
2018-08-29T20:55:17.634Z,22.06
2018-08-29T20:57:46.625Z,21.63
2018-08-29T21:00:15.599Z,21.15
2018-08-29T21:02:44.658Z,21.42
2018-08-29T21:05:13.597Z,21.56
2018-08-29T21:07:42.677Z,21.50
2018-08-29T21:10:11.635Z,21.97
2018-08-29T21:12:40.710Z,21.68
2018-08-29T21:15:09.673Z,21.26
2018-08-29T21:17:38.706Z,20.91
2018-08-29T21:20:07.719Z,20.96
2018-08-29T21:22:36.693Z,20.83
2018-08-29T21:25:05.974Z,20.79
2018-08-29T21:27:46.029Z,21.01
2018-08-29T21:30:25.999Z,20.66
2018-08-29T21:33:32.601Z,20.94
2018-08-29T21:37:10.180Z,21.01
2018-08-29T21:39:39.130Z,20.63
2018-08-29T21:42:08.186Z,20.82
2018-08-29T21:44:48.086Z,20.57
2018-08-29T21:48:03.917Z,20.66
2018-08-29T21:50:44.011Z,20.54
2018-08-29T21:56:28.286Z,20.90
2018-08-29T21:59:09.005Z,20.69
2018-08-29T22:02:20.176Z,20.66
2018-08-29T22:05:14.029Z,20.69
2018-08-29T22:07:43.188Z,20.68
2018-08-29T22:10:12.617Z,20.59
2018-08-29T22:12:41.586Z,20.81
2018-08-29T22:15:22.887Z,20.73
2018-08-29T22:17:51.861Z,20.98
2018-08-29T22:20:21.442Z,21.09
2018-08-29T22:22:50.674Z,20.91
2018-08-29T22:25:20.049Z,20.98
2018-08-29T22:27:49.041Z,20.77
2018-08-29T22:30:18.094Z,20.74
2018-08-29T22:32:47.142Z,20.96
2018-08-29T22:35:16.162Z,21.06
2018-08-29T22:37:45.120Z,21.21
2018-08-29T22:40:14.082Z,21.17
2018-08-29T22:42:42.985Z,21.10
2018-08-29T22:45:11.952Z,20.54
2018-08-29T22:47:40.931Z,19.77
2018-08-29T22:50:09.849Z,20.43
2018-08-29T22:52:38.874Z,20.40
2018-08-29T22:55:07.890Z,20.75
2018-08-29T22:57:36.848Z,20.62
2018-08-29T23:00:06.012Z,20.65
2018-08-29T23:02:34.957Z,20.03
2018-08-29T23:05:03.912Z,20.17
2018-08-29T23:07:32.997Z,20.15
2018-08-29T23:10:02.023Z,19.87
2018-08-29T23:12:30.982Z,19.53
2018-08-29T23:14:59.953Z,19.79
2018-08-29T23:17:28.912Z,19.86
2018-08-29T23:19:57.873Z,19.81
2018-08-29T23:22:26.874Z,19.54
2018-08-29T23:24:55.796Z,19.61
2018-08-29T23:27:24.781Z,19.72
2018-08-29T23:29:53.773Z,19.39
2018-08-29T23:32:22.863Z,19.68
2018-08-29T23:34:51.882Z,19.58
2018-08-29T23:37:20.909Z,19.59
2018-08-29T23:39:49.926Z,19.34
2018-08-29T23:42:18.990Z,19.53
2018-08-29T23:44:48.030Z,19.33
2018-08-29T23:47:16.995Z,19.65
2018-08-29T23:49:45.941Z,19.75
2018-08-29T23:52:15.060Z,19.73
2018-08-29T23:54:43.998Z,19.38
2018-08-29T23:57:13.073Z,19.52
2018-08-29T23:59:42.123Z,19.87
